TimeEST,TemperatureF,Dew PointF,Humidity,Sea Level PressureIn,VisibilityMPH,Wind Direction,Wind SpeedMPH,Gust SpeedMPH,PrecipitationIn,Events,Conditions,WindDirDegrees,DateUTC
12:54 AM,26.1,15.1,63,30.04,10.0,West,10.4,17.3,N/A,,Clear,260,2013-12-11 05:54:00
1:54 AM,27.0,14.0,58,30.06,10.0,West,13.8,19.6,N/A,,Clear,270,2013-12-11 06:54:00
2:54 AM,27.0,15.1,61,30.08,10.0,WSW,12.7,20.7,N/A,,Clear,250,2013-12-11 07:54:00
3:54 AM,26.1,15.1,63,30.09,10.0,WSW,11.5,19.6,N/A,,Clear,240,2013-12-11 08:54:00
4:54 AM,26.1,15.1,63,30.12,10.0,WSW,10.4,-,N/A,,Clear,240,2013-12-11 09:54:00
5:54 AM,24.1,15.1,69,30.15,10.0,WSW,12.7,-,N/A,,Partly Cloudy,240,2013-12-11 10:54:00
6:54 AM,24.1,15.1,69,30.18,10.0,WSW,16.1,-,N/A,,Partly Cloudy,240,2013-12-11 11:54:00
7:54 AM,25.0,15.1,66,30.20,10.0,SW,13.8,-,N/A,,Partly Cloudy,230,2013-12-11 12:54:00
8:54 AM,27.0,15.1,61,30.22,10.0,WSW,15.0,-,N/A,,Clear,240,2013-12-11 13:54:00
9:54 AM,28.9,16.0,58,30.22,10.0,WSW,13.8,23.0,N/A,,Partly Cloudy,240,2013-12-11 14:54:00
10:54 AM,30.0,16.0,56,30.19,10.0,SW,18.4,-,N/A,,Partly Cloudy,230,2013-12-11 15:54:00
11:54 AM,30.9,17.1,57,30.16,10.0,WSW,13.8,21.9,N/A,,Scattered Clouds,250,2013-12-11 16:54:00
12:54 PM,30.9,17.1,57,30.14,10.0,WSW,16.1,25.3,N/A,,Mostly Cloudy,250,2013-12-11 17:54:00
1:54 PM,30.0,17.1,59,30.15,10.0,West,16.1,24.2,N/A,,Mostly Cloudy,260,2013-12-11 18:54:00
2:54 PM,30.0,17.1,59,30.14,10.0,SW,18.4,-,N/A,,Mostly Cloudy,230,2013-12-11 19:54:00
3:54 PM,28.9,17.1,61,30.15,10.0,WSW,17.3,-,N/A,,Mostly Cloudy,240,2013-12-11 20:54:00
4:54 PM,28.0,17.1,63,30.16,10.0,WSW,11.5,-,N/A,,Mostly Cloudy,240,2013-12-11 21:54:00
5:54 PM,28.0,17.1,63,30.16,10.0,SW,11.5,-,N/A,,Scattered Clouds,230,2013-12-11 22:54:00
6:54 PM,28.0,17.1,63,30.16,10.0,WSW,13.8,-,N/A,,Scattered Clouds,240,2013-12-11 23:54:00
7:54 PM,27.0,17.1,66,30.15,10.0,WSW,12.7,-,N/A,,Scattered Clouds,240,2013-12-12 00:54:00
8:54 PM,27.0,16.0,63,30.15,10.0,WSW,12.7,-,N/A,,Scattered Clouds,240,2013-12-12 01:54:00
9:54 PM,27.0,16.0,63,30.14,10.0,WSW,13.8,20.7,N/A,,Scattered Clouds,250,2013-12-12 02:54:00
10:54 PM,27.0,16.0,63,30.14,10.0,West,13.8,21.9,N/A,,Scattered Clouds,260,2013-12-12 03:54:00
11:54 PM,27.0,16.0,63,30.14,10.0,West,12.7,-,N/A,,Scattered Clouds,270,2013-12-12 04:54:00